createdAt,value
2018-08-12T00:01:23.829Z,11.10
2018-08-12T00:03:51.579Z,11.00
2018-08-12T00:06:19.275Z,11.00
2018-08-12T00:08:46.915Z,10.90
2018-08-12T00:13:42.123Z,10.90
2018-08-12T00:16:09.869Z,10.80
2018-08-12T00:18:37.549Z,10.70
2018-08-12T00:21:05.427Z,10.70
2018-08-12T00:23:33.162Z,10.70
2018-08-12T00:26:00.837Z,10.70
2018-08-12T00:28:28.573Z,10.70
2018-08-12T00:33:23.775Z,10.70
2018-08-12T00:35:51.438Z,10.70
2018-08-12T00:38:19.158Z,10.70
2018-08-12T00:43:14.340Z,10.60
2018-08-12T00:45:41.984Z,10.70
2018-08-12T00:48:09.690Z,10.60
2018-08-12T00:50:37.343Z,10.60
2018-08-12T00:53:05.088Z,10.60
2018-08-12T00:55:32.759Z,10.50
2018-08-12T00:58:00.480Z,10.50
2018-08-12T01:00:28.195Z,10.50
2018-08-12T01:02:55.900Z,10.40
2018-08-12T01:05:23.522Z,10.40
2018-08-12T01:07:51.148Z,10.40
2018-08-12T01:10:19.354Z,10.40
2018-08-12T01:12:47.093Z,10.40
2018-08-12T01:15:20.831Z,10.30
2018-08-12T01:20:18.956Z,10.30
2018-08-12T01:22:46.639Z,10.30
2018-08-12T01:25:14.350Z,10.30
2018-08-12T01:27:42.041Z,10.30
2018-08-12T01:30:12.078Z,10.40
2018-08-12T01:32:39.843Z,10.40
2018-08-12T01:35:08.734Z,10.40
2018-08-12T01:37:36.530Z,10.30
2018-08-12T01:40:05.698Z,10.30
2018-08-12T01:42:33.330Z,10.30
2018-08-12T01:45:00.935Z,10.20
2018-08-12T01:47:28.545Z,10.20
2018-08-12T01:49:56.236Z,10.10
2018-08-12T01:52:23.925Z,10.10
2018-08-12T01:54:51.508Z,10.10
2018-08-12T01:57:19.200Z,10.20
2018-08-12T01:59:46.833Z,10.10
2018-08-12T02:02:14.456Z,10.00
2018-08-12T02:04:42.101Z,10.10
2018-08-12T02:09:37.286Z,10.00
2018-08-12T02:12:05.001Z,10.00
2018-08-12T02:17:00.168Z,9.80
2018-08-12T02:19:27.810Z,9.80
2018-08-12T02:21:55.514Z,9.80
2018-08-12T02:26:50.574Z,9.80
2018-08-12T02:29:18.175Z,9.80
2018-08-12T02:31:45.837Z,9.70
2018-08-12T02:34:13.435Z,9.70
2018-08-12T02:36:41.082Z,9.60
2018-08-12T02:39:10.213Z,9.60
2018-08-12T02:41:37.855Z,9.60
2018-08-12T02:44:05.577Z,9.50
2018-08-12T02:46:33.603Z,9.50
2018-08-12T02:49:01.447Z,9.50
2018-08-12T02:51:29.201Z,9.50
2018-08-12T02:53:56.981Z,9.40
2018-08-12T02:58:52.165Z,9.40
2018-08-12T03:01:20.074Z,9.40
2018-08-12T03:03:47.692Z,9.40
2018-08-12T03:06:15.350Z,9.30
2018-08-12T03:08:42.956Z,9.30
2018-08-12T03:11:10.684Z,9.30
2018-08-12T03:13:38.411Z,9.20
2018-08-12T03:16:06.092Z,9.30
2018-08-12T03:18:33.723Z,9.20
2018-08-12T03:21:01.661Z,9.20
2018-08-12T03:23:29.319Z,9.40
2018-08-12T03:25:56.970Z,9.20
2018-08-12T03:28:24.571Z,9.20
2018-08-12T03:30:52.256Z,9.20
2018-08-12T03:33:19.819Z,9.20
2018-08-12T03:35:47.493Z,9.20
2018-08-12T03:38:15.150Z,9.20
2018-08-12T03:40:42.776Z,9.10
2018-08-12T03:45:37.921Z,9.10
2018-08-12T03:48:05.654Z,8.90
2018-08-12T03:50:33.199Z,8.90
2018-08-12T03:53:00.900Z,8.90
2018-08-12T03:55:28.610Z,8.90
2018-08-12T03:57:56.240Z,8.90
2018-08-12T04:00:23.939Z,8.90
2018-08-12T04:02:51.646Z,8.90
2018-08-12T04:05:19.295Z,8.90
2018-08-12T04:07:46.934Z,8.90
2018-08-12T04:10:14.576Z,8.90
2018-08-12T04:12:42.315Z,8.90
2018-08-12T04:17:38.840Z,8.90
2018-08-12T04:20:07.370Z,8.80
2018-08-12T04:22:35.254Z,8.80
2018-08-12T04:25:04.678Z,8.80
2018-08-12T04:27:32.463Z,8.90
2018-08-12T04:30:00.190Z,8.90
2018-08-12T04:32:27.850Z,8.90
2018-08-12T04:34:55.610Z,8.90
2018-08-12T04:37:23.210Z,9.00
2018-08-12T04:39:50.844Z,9.00
2018-08-12T04:42:18.529Z,9.00
2018-08-12T04:44:46.167Z,8.90
2018-08-12T04:47:13.791Z,9.00
2018-08-12T04:49:41.406Z,8.90
2018-08-12T04:52:09.115Z,9.00
2018-08-12T04:54:36.733Z,9.00
2018-08-12T04:57:04.429Z,9.00
2018-08-12T05:01:59.665Z,9.00
2018-08-12T05:04:27.291Z,9.10
2018-08-12T05:06:55.032Z,9.20
2018-08-12T05:09:22.726Z,9.20
2018-08-12T05:11:50.352Z,9.20
2018-08-12T05:14:17.995Z,9.20
2018-08-12T05:16:45.704Z,9.30
2018-08-12T05:19:13.362Z,9.40
2018-08-12T05:21:40.999Z,9.40
2018-08-12T05:24:08.599Z,9.50
2018-08-12T05:26:36.238Z,9.50
2018-08-12T05:29:03.822Z,9.50
2018-08-12T05:31:31.460Z,9.60
2018-08-12T05:33:59.120Z,9.70
2018-08-12T05:36:26.806Z,9.70
2018-08-12T05:38:54.465Z,9.80
2018-08-12T05:41:22.146Z,9.90
2018-08-12T05:46:17.287Z,10.00
2018-08-12T05:48:45.063Z,10.20
2018-08-12T05:51:12.823Z,10.40
2018-08-12T05:53:40.436Z,10.50
2018-08-12T05:56:08.134Z,10.70
2018-08-12T05:58:35.804Z,10.80
2018-08-12T06:01:03.535Z,10.90
2018-08-12T06:03:31.260Z,11.10
2018-08-12T06:05:58.895Z,11.30
2018-08-12T06:08:26.558Z,11.30
2018-08-12T06:10:54.191Z,11.40
2018-08-12T06:15:49.660Z,11.80
2018-08-12T06:18:17.325Z,13.90
2018-08-12T06:20:45.026Z,12.30
2018-08-12T06:23:12.735Z,12.50
2018-08-12T06:25:40.465Z,12.80
2018-08-12T06:28:08.086Z,13.00
2018-08-12T06:30:35.856Z,13.10
2018-08-12T06:33:03.867Z,13.40
2018-08-12T06:35:31.490Z,13.60
2018-08-12T06:37:59.113Z,13.70
2018-08-12T06:40:26.897Z,13.80
2018-08-12T06:42:54.497Z,14.00
2018-08-12T06:47:49.768Z,14.30
2018-08-12T06:50:17.426Z,14.40
2018-08-12T06:52:45.083Z,14.50
2018-08-12T06:55:13.453Z,14.70
2018-08-12T06:57:42.262Z,14.80
2018-08-12T07:00:14.791Z,15.00
2018-08-12T07:02:42.566Z,15.30
2018-08-12T07:05:10.896Z,15.60
2018-08-12T07:07:38.721Z,15.70
2018-08-12T07:10:09.768Z,16.10
2018-08-12T07:12:37.461Z,16.40
2018-08-12T07:15:07.316Z,16.70
2018-08-12T07:17:34.991Z,16.90
2018-08-12T07:20:02.708Z,17.20
2018-08-12T07:22:30.317Z,17.40
2018-08-12T07:24:57.948Z,17.50
2018-08-12T07:27:25.603Z,17.70
2018-08-12T07:29:53.236Z,17.90
2018-08-12T07:32:20.952Z,18.10
2018-08-12T07:39:43.620Z,18.80
2018-08-12T07:42:11.327Z,19.00
2018-08-12T07:44:39.105Z,19.10
2018-08-12T07:47:06.726Z,19.30
2018-08-12T07:49:34.384Z,19.60
2018-08-12T07:52:02.028Z,19.70
2018-08-12T07:54:29.711Z,19.90
2018-08-12T07:56:57.391Z,19.90
2018-08-12T07:59:25.050Z,20.00
2018-08-12T08:01:52.771Z,20.00
2018-08-12T08:04:20.478Z,20.10
2018-08-12T08:06:48.206Z,20.10
2018-08-12T08:09:15.859Z,20.20
2018-08-12T08:11:43.472Z,20.30
2018-08-12T08:14:11.138Z,20.30
2018-08-12T08:16:38.813Z,20.30
2018-08-12T08:19:06.588Z,20.30
2018-08-12T08:21:34.208Z,20.40
2018-08-12T08:26:29.414Z,20.50
2018-08-12T08:28:57.234Z,20.60
2018-08-12T08:31:24.913Z,20.70
2018-08-12T08:36:20.331Z,21.00
2018-08-12T08:38:47.999Z,21.10
2018-08-12T08:41:15.611Z,21.20
2018-08-12T08:43:43.303Z,21.30
2018-08-12T08:46:10.991Z,21.50
2018-08-12T08:48:38.667Z,21.70
2018-08-12T08:51:06.382Z,22.00
2018-08-12T08:58:23.837Z,22.40
2018-08-12T09:00:51.470Z,22.50
2018-08-12T09:03:19.147Z,22.60
2018-08-12T09:05:46.855Z,22.80
2018-08-12T09:08:14.815Z,22.90
2018-08-12T09:11:02.435Z,22.90
2018-08-12T09:13:50.748Z,23.20
2018-08-12T09:16:41.757Z,23.50
2018-08-12T09:19:14.561Z,23.50
2018-08-12T09:21:55.495Z,23.50
2018-08-12T09:24:27.227Z,23.50
2018-08-12T09:27:13.253Z,23.50
2018-08-12T09:29:55.871Z,23.50
2018-08-12T09:35:24.486Z,23.50
2018-08-12T09:40:47.806Z,23.90
2018-08-12T09:43:34.366Z,23.90
2018-08-12T09:46:17.817Z,24.00
2018-08-12T09:49:05.412Z,24.10
2018-08-12T09:51:47.827Z,24.00
2018-08-12T09:54:27.000Z,24.30
2018-08-12T09:57:08.078Z,24.60
2018-08-12T09:59:58.458Z,24.80
2018-08-12T10:02:40.854Z,25.00
2018-08-12T10:05:24.828Z,25.60
2018-08-12T10:08:09.233Z,26.20
2018-08-12T10:10:50.568Z,26.50
2018-08-12T10:13:28.260Z,26.80
2018-08-12T10:16:04.685Z,26.90
2018-08-12T10:18:47.577Z,27.50
2018-08-12T10:21:31.379Z,28.40
2018-08-12T10:24:00.584Z,28.40
2018-08-12T10:26:28.286Z,28.00
2018-08-12T10:28:56.062Z,28.00
2018-08-12T10:31:23.697Z,28.10
2018-08-12T10:33:51.382Z,28.40
2018-08-12T10:36:19.030Z,28.60
2018-08-12T10:41:14.412Z,30.10
2018-08-12T10:43:42.087Z,30.60
2018-08-12T10:46:09.768Z,30.70
2018-08-12T10:48:37.527Z,30.90
2018-08-12T10:51:05.352Z,31.90
2018-08-12T10:53:33.027Z,32.70
2018-08-12T10:56:00.718Z,32.70
2018-08-12T10:58:28.518Z,32.30
2018-08-12T11:05:51.487Z,32.40
2018-08-12T11:08:19.193Z,32.60
2018-08-12T11:13:25.996Z,32.70
2018-08-12T11:15:53.663Z,31.90
2018-08-12T11:18:21.308Z,31.90
2018-08-12T11:25:43.997Z,32.40
2018-08-12T11:28:11.742Z,32.20
2018-08-12T11:30:39.393Z,32.10
2018-08-12T11:35:34.657Z,31.60
2018-08-12T11:38:02.537Z,32.40
2018-08-12T11:40:30.256Z,32.60
2018-08-12T11:45:25.422Z,31.80
2018-08-12T11:47:53.089Z,31.90
2018-08-12T11:50:20.763Z,31.80
2018-08-12T11:55:17.483Z,31.70
2018-08-12T11:57:45.256Z,32.00
2018-08-12T12:00:19.816Z,31.90
2018-08-12T12:02:48.793Z,31.30
2018-08-12T12:05:16.533Z,30.90
2018-08-12T12:07:44.368Z,30.90
2018-08-12T12:10:14.572Z,30.30
2018-08-12T12:12:43.183Z,30.40
2018-08-12T12:17:39.057Z,30.50
2018-08-12T12:20:08.737Z,30.90
2018-08-12T12:22:37.409Z,31.40
2018-08-12T12:25:06.425Z,31.80
2018-08-12T12:27:34.632Z,32.20
2018-08-12T12:30:02.344Z,33.00
2018-08-12T12:32:29.943Z,33.60
2018-08-12T12:34:57.684Z,34.60
2018-08-12T12:39:52.943Z,34.70
2018-08-12T12:55:15.173Z,34.30
2018-08-12T12:57:42.928Z,35.20
2018-08-12T13:00:12.664Z,35.70
2018-08-12T13:02:40.318Z,35.40
2018-08-12T13:05:09.863Z,34.80
2018-08-12T13:07:37.605Z,34.90
2018-08-12T13:10:05.968Z,35.20
2018-08-12T13:12:33.710Z,35.60
2018-08-12T13:15:01.398Z,35.70
2018-08-12T13:17:29.065Z,35.80
2018-08-12T13:19:56.799Z,35.50
2018-08-12T13:24:52.016Z,34.10
2018-08-12T13:27:19.708Z,33.90
2018-08-12T13:29:48.394Z,33.80
2018-08-12T13:32:16.074Z,34.00
2018-08-12T13:34:43.765Z,34.40
2018-08-12T13:37:11.480Z,34.90
2018-08-12T13:39:39.413Z,35.30
2018-08-12T13:44:34.649Z,35.40
2018-08-12T13:47:02.304Z,34.80
2018-08-12T13:49:30.024Z,34.00
2018-08-12T13:54:25.178Z,33.80
2018-08-12T13:56:52.875Z,33.90
2018-08-12T13:59:20.608Z,34.20
2018-08-12T14:01:48.251Z,34.60
2018-08-12T14:04:15.929Z,34.90
2018-08-12T14:06:43.589Z,35.00
2018-08-12T14:09:11.172Z,35.20
2018-08-12T14:11:39.033Z,35.30
2018-08-12T14:16:34.999Z,35.70
2018-08-12T14:19:03.446Z,35.50
2018-08-12T14:21:31.774Z,35.30
2018-08-12T14:24:00.408Z,35.20
2018-08-12T14:26:28.069Z,35.00
2018-08-12T14:29:10.229Z,35.40
2018-08-12T14:31:48.943Z,35.60
2018-08-12T14:34:36.276Z,35.70
2018-08-12T14:37:22.799Z,35.80
2018-08-12T14:40:00.320Z,35.80
2018-08-12T14:42:43.150Z,35.80
2018-08-12T14:45:35.441Z,35.60
2018-08-12T14:48:29.778Z,35.60
2018-08-12T14:51:20.257Z,35.40
2018-08-12T14:54:09.052Z,35.30
2018-08-12T14:56:37.690Z,35.10
2018-08-12T14:59:07.985Z,35.10
2018-08-12T15:01:35.883Z,35.40
2018-08-12T15:06:45.200Z,36.00
2018-08-12T15:09:13.095Z,36.50
2018-08-12T15:11:41.020Z,36.60
2018-08-12T15:14:09.427Z,36.70
2018-08-12T15:16:59.139Z,36.60
2018-08-12T15:19:49.014Z,36.30
2018-08-12T15:22:35.020Z,36.00
2018-08-12T15:25:04.910Z,35.90
2018-08-12T15:27:32.985Z,35.70
2018-08-12T15:30:01.002Z,35.30
2018-08-12T15:32:28.677Z,35.20
2018-08-12T15:34:56.334Z,35.00
2018-08-12T15:37:24.061Z,34.90
2018-08-12T15:42:20.018Z,34.80
2018-08-12T15:44:47.628Z,34.70
2018-08-12T15:47:15.378Z,34.40
2018-08-12T15:49:44.292Z,34.00
2018-08-12T15:52:11.974Z,33.80
2018-08-12T15:54:39.615Z,33.60
2018-08-12T15:59:34.910Z,33.20
2018-08-12T16:02:02.648Z,33.00
2018-08-12T16:04:30.338Z,32.80
2018-08-12T16:09:25.507Z,30.60
2018-08-12T16:11:53.151Z,32.30
2018-08-12T16:14:20.798Z,33.70
2018-08-12T16:16:48.524Z,31.60
2018-08-12T16:19:16.192Z,31.20
2018-08-12T16:21:43.898Z,30.70
2018-08-12T16:24:11.655Z,30.20
2018-08-12T16:26:39.287Z,29.70
2018-08-12T16:29:06.964Z,29.30
2018-08-12T16:31:34.621Z,29.10
2018-08-12T16:34:02.283Z,28.90
2018-08-12T16:36:29.963Z,29.00
2018-08-12T16:38:57.718Z,28.90
2018-08-12T16:41:25.343Z,28.50
2018-08-12T16:43:53.022Z,28.20
2018-08-12T16:46:20.719Z,28.10
2018-08-12T16:48:48.469Z,28.00
2018-08-12T16:53:43.702Z,27.90
2018-08-12T16:56:11.386Z,27.80
2018-08-12T16:58:39.102Z,27.70
2018-08-12T17:01:06.759Z,27.60
2018-08-12T17:03:34.460Z,27.50
2018-08-12T17:06:02.115Z,27.40
2018-08-12T17:08:29.788Z,27.30
2018-08-12T17:10:57.465Z,27.10
2018-08-12T17:13:25.171Z,27.00
2018-08-12T17:15:53.163Z,26.90
2018-08-12T17:20:48.444Z,26.70
2018-08-12T17:23:16.090Z,26.70
2018-08-12T17:25:43.822Z,26.60
2018-08-12T17:28:11.458Z,26.50
2018-08-12T17:30:39.172Z,26.30
2018-08-12T17:33:06.838Z,26.20
2018-08-12T17:35:34.538Z,26.00
2018-08-12T17:38:02.255Z,25.90
2018-08-12T17:40:29.971Z,25.60
2018-08-12T17:45:21.845Z,25.40
2018-08-12T17:47:49.628Z,25.10
2018-08-12T17:52:45.429Z,24.70
2018-08-12T17:55:13.138Z,24.50
2018-08-12T17:57:40.811Z,24.30
2018-08-12T18:00:11.205Z,24.20
2018-08-12T18:02:39.019Z,24.00
2018-08-12T18:05:07.099Z,23.90
2018-08-12T18:07:34.790Z,23.70
2018-08-12T18:10:02.464Z,23.50
2018-08-12T18:12:30.153Z,23.30
2018-08-12T18:14:57.872Z,23.00
2018-08-12T18:17:25.538Z,22.80
2018-08-12T18:19:53.219Z,22.50
2018-08-12T18:22:20.864Z,22.20
2018-08-12T18:27:16.003Z,21.70
2018-08-12T18:29:43.653Z,21.50
2018-08-12T18:32:11.348Z,21.30
2018-08-12T18:37:11.541Z,20.90
2018-08-12T18:39:57.054Z,20.70
2018-08-12T18:42:26.423Z,20.60
2018-08-12T18:44:55.825Z,20.40
2018-08-12T18:47:48.527Z,20.30
2018-08-12T18:50:41.186Z,20.10
2018-08-12T18:53:29.544Z,20.00
2018-08-12T18:56:06.157Z,19.70
2018-08-12T18:58:56.584Z,19.60
2018-08-12T19:01:49.569Z,19.50
2018-08-12T19:07:29.919Z,19.20
2018-08-12T19:10:25.255Z,19.10
2018-08-12T19:13:16.551Z,18.90
2018-08-12T19:16:07.359Z,18.80
2018-08-12T19:18:58.655Z,18.70
2018-08-12T19:21:49.975Z,18.60
2018-08-12T19:24:42.153Z,18.40
2018-08-12T19:27:34.710Z,18.30
2018-08-12T19:30:27.416Z,18.20
2018-08-12T19:33:17.457Z,18.10
2018-08-12T19:36:08.835Z,17.90
2018-08-12T19:39:00.260Z,17.80
2018-08-12T19:41:54.554Z,17.80
2018-08-12T19:44:22.953Z,17.60
2018-08-12T19:46:51.218Z,17.60
2018-08-12T19:49:19.408Z,17.50
2018-08-12T19:51:47.080Z,17.40
2018-08-12T19:54:15.671Z,17.40
2018-08-12T19:56:45.735Z,17.40
2018-08-12T19:59:14.052Z,17.30
2018-08-12T20:01:42.920Z,17.30
2018-08-12T20:04:10.717Z,17.20
2018-08-12T20:06:40.004Z,17.20
2018-08-12T20:09:10.148Z,17.10
2018-08-12T20:11:39.829Z,17.10
2018-08-12T20:14:07.954Z,17.00
2018-08-12T20:16:35.707Z,16.90
2018-08-12T20:19:03.504Z,16.80
2018-08-12T20:21:32.195Z,16.90
2018-08-12T20:24:00.269Z,16.90
2018-08-12T20:26:28.801Z,16.90
2018-08-12T20:28:58.240Z,16.80
2018-08-12T20:31:26.554Z,16.80
2018-08-12T20:33:54.600Z,16.70
2018-08-12T20:36:23.216Z,16.60
2018-08-12T20:38:50.895Z,16.50
2018-08-12T20:41:18.549Z,16.50
2018-08-12T20:43:46.218Z,16.50
2018-08-12T20:46:13.845Z,16.40
2018-08-12T20:51:10.884Z,16.30
2018-08-12T20:53:39.170Z,16.30
2018-08-12T20:56:08.166Z,16.20
2018-08-12T21:01:07.497Z,16.10
2018-08-12T21:03:35.695Z,16.10
2018-08-12T21:06:04.027Z,16.10
2018-08-12T21:08:32.324Z,16.00
2018-08-12T21:11:01.816Z,16.00
2018-08-12T21:18:28.885Z,16.00
2018-08-12T21:20:57.204Z,16.10
2018-08-12T21:23:26.387Z,16.10
2018-08-12T21:25:57.163Z,16.10
2018-08-12T21:28:25.470Z,15.90
2018-08-12T21:30:53.115Z,15.80
2018-08-12T21:35:51.724Z,15.70
2018-08-12T21:38:20.046Z,15.60
2018-08-12T21:43:17.431Z,15.50
2018-08-12T21:45:45.055Z,15.40
2018-08-12T21:48:12.727Z,15.30
2018-08-12T21:50:40.385Z,15.30
2018-08-12T21:53:08.030Z,15.30
2018-08-12T21:55:35.686Z,15.20
2018-08-12T21:58:03.392Z,15.30
2018-08-12T22:00:31.160Z,15.30
2018-08-12T22:02:58.816Z,15.30
2018-08-12T22:05:26.480Z,15.30
2018-08-12T22:07:54.141Z,15.40
2018-08-12T22:10:21.865Z,15.50
2018-08-12T22:12:49.580Z,15.60
2018-08-12T22:15:17.230Z,15.60
2018-08-12T22:17:44.868Z,15.70
2018-08-12T22:20:12.594Z,15.70
2018-08-12T22:22:40.220Z,15.70
2018-08-12T22:30:03.173Z,15.50
2018-08-12T22:32:30.875Z,15.50
2018-08-12T22:34:58.555Z,15.50
2018-08-12T22:37:26.256Z,15.60
2018-08-12T22:42:21.439Z,15.50
2018-08-12T22:44:49.065Z,15.40
2018-08-12T22:47:16.710Z,15.10
2018-08-12T22:49:44.466Z,15.00
2018-08-12T22:54:39.647Z,14.80
2018-08-12T22:57:07.232Z,14.70
2018-08-12T22:59:35.006Z,14.70
2018-08-12T23:02:02.730Z,14.70
2018-08-12T23:04:30.481Z,14.70
2018-08-12T23:06:58.176Z,14.70
2018-08-12T23:11:53.365Z,14.70
2018-08-12T23:14:20.970Z,14.70
2018-08-12T23:16:57.214Z,14.60
2018-08-12T23:19:24.932Z,14.60
2018-08-12T23:21:52.602Z,14.60
2018-08-12T23:24:20.201Z,14.50
2018-08-12T23:26:47.822Z,14.50
2018-08-12T23:29:15.509Z,14.60
2018-08-12T23:31:43.126Z,14.60
2018-08-12T23:34:10.727Z,14.60
2018-08-12T23:39:07.616Z,14.90
2018-08-12T23:44:04.098Z,14.90
2018-08-12T23:46:31.730Z,14.90
2018-08-12T23:51:26.992Z,14.90
2018-08-12T23:53:54.621Z,14.90
2018-08-12T23:56:22.310Z,14.80
2018-08-12T23:58:49.959Z,14.70
